Time;durP1;ratioP1;P1;durP2;ratioP2;P2;SDS_P1;SDS_P2;PMS_P1;PMS_P2;Temp;Humidity;BMP_temperature;BMP_pressure;BME280_temperature;BME280_humidity;BME280_pressure;Samples;Min_cycle;Max_cycle;Signal;HPM_P1;HPM_P2
2022/08/03 00:02:02;;;;;;;2.47;1.60;;;;;;;15.88;84.16;94145.53;5004935;28;20207;-73
2022/08/03 00:04:47;;;;;;;2.47;1.20;;;;;;;15.74;84.58;94145.47;5007568;28;20219;-73
2022/08/03 00:07:31;;;;;;;1.63;1.30;;;;;;;15.68;85.86;94145.16;5008818;28;20195;-73
2022/08/03 00:10:15;;;;;;;1.40;1.23;;;;;;;15.63;86.64;94142.72;5009873;28;20215;-72
2022/08/03 00:13:00;;;;;;;3.00;1.53;;;;;;;15.55;87.48;94143.03;5006759;28;20212;-73
2022/08/03 00:15:44;;;;;;;1.57;1.47;;;;;;;15.60;87.20;94139.06;5008998;28;20265;-73
2022/08/03 00:18:28;;;;;;;3.67;1.40;;;;;;;15.64;86.88;94142.09;5010611;28;20203;-73
2022/08/03 00:21:12;;;;;;;5.40;1.63;;;;;;;15.65;86.13;94143.56;5009862;28;20615;-73
2022/08/03 00:23:56;;;;;;;3.63;1.40;;;;;;;15.55;85.88;94151.50;5006994;28;20204;-73
2022/08/03 00:26:40;;;;;;;1.97;1.47;;;;;;;15.54;86.46;94146.47;5008873;28;20218;-72
2022/08/03 00:29:25;;;;;;;3.13;1.47;;;;;;;15.51;86.90;94148.41;5007350;28;20211;-73
2022/08/03 00:32:09;;;;;;;1.70;1.40;;;;;;;15.51;86.78;94142.75;5006517;28;20204;-73
2022/08/03 00:34:53;;;;;;;2.43;1.80;;;;;;;15.47;87.41;94139.69;5008807;28;20283;-73
2022/08/03 00:37:37;;;;;;;2.93;1.20;;;;;;;15.56;87.34;94133.16;5008458;28;20577;-73
2022/08/03 00:40:22;;;;;;;1.73;1.50;;;;;;;15.58;87.75;94141.03;5006978;28;20998;-73
2022/08/03 00:43:07;;;;;;;5.17;1.50;;;;;;;15.50;86.94;94138.44;5005968;28;20232;-73
2022/08/03 00:45:51;;;;;;;3.50;1.50;;;;;;;15.51;86.78;94131.44;5005337;28;20322;-73
2022/08/03 00:48:35;;;;;;;2.20;1.60;;;;;;;15.54;86.73;94135.91;5009600;28;20196;-73
2022/08/03 00:51:21;;;;;;;1.40;1.30;;;;;;;15.51;86.39;94137.09;5003628;28;20224;-72
2022/08/03 00:54:05;;;;;;;5.47;1.53;;;;;;;15.50;87.39;94129.25;5005006;28;20273;-73
2022/08/03 00:56:49;;;;;;;4.07;1.80;;;;;;;15.52;88.06;94132.94;5008330;28;20203;-72
2022/08/03 00:59:34;;;;;;;1.83;1.53;;;;;;;15.51;87.17;94131.44;5004391;28;20722;-73
2022/08/03 01:02:18;;;;;;;1.57;1.37;;;;;;;15.46;87.65;94135.41;5000203;28;20197;-73
2022/08/03 01:05:02;;;;;;;1.53;1.40;;;;;;;15.48;87.44;94132.69;5005762;28;20228;-73
2022/08/03 01:08:11;;;;;;;3.60;1.73;;;;;;;15.45;86.79;94133.94;5004797;28;20242;-72
2022/08/03 01:11:14;;;;;;;2.43;1.53;;;;;;;15.43;87.16;94133.81;5003567;28;20228;-72
2022/08/03 01:14:19;;;;;;;1.90;1.67;;;;;;;15.40;87.48;94132.25;5005772;28;20235;-72
2022/08/03 01:17:24;;;;;;;1.47;1.37;;;;;;;15.35;86.93;94124.91;5004649;28;20668;-73
2022/08/03 01:20:12;;;;;;;1.67;1.53;;;;;;;15.31;87.25;94133.84;5002928;28;20262;-73
2022/08/03 01:23:01;;;;;;;1.93;1.63;;;;;;;15.30;87.37;94126.03;5004823;28;20207;-73
2022/08/03 01:26:31;;;;;;;1.87;1.43;;;;;;;15.24;86.63;94123.59;5007459;28;20718;-72
2022/08/03 01:29:49;;;;;;;3.73;1.53;;;;;;;15.08;87.37;94119.09;5003922;28;20751;-72
2022/08/03 01:32:39;;;;;;;2.73;1.43;;;;;;;15.10;87.74;94122.03;5000862;28;20196;-73
2022/08/03 01:35:33;;;;;;;1.40;1.30;;;;;;;15.07;87.56;94120.44;5004399;28;20512;-73
2022/08/03 01:38:23;;;;;;;1.77;1.50;;;;;;;15.09;87.62;94117.75;5002193;28;20208;-73
2022/08/03 01:41:12;;;;;;;3.27;2.17;;;;;;;15.12;88.58;94119.34;5004891;28;20200;-73
2022/08/03 01:43:58;;;;;;;1.90;1.70;;;;;;;15.09;89.90;94121.31;5005895;28;20289;-73
2022/08/03 01:46:47;;;;;;;2.47;1.43;;;;;;;15.07;88.20;94111.97;5007846;28;21924;-73
2022/08/03 01:49:37;;;;;;;2.40;1.70;;;;;;;14.98;87.67;94108.69;5007511;28;20224;-73
2022/08/03 01:52:23;;;;;;;2.63;1.70;;;;;;;14.98;88.77;94111.53;5009071;28;20200;-73
2022/08/03 01:55:09;;;;;;;1.60;1.50;;;;;;;14.96;89.70;94116.31;5009422;28;20679;-73
2022/08/03 01:57:55;;;;;;;1.80;1.67;;;;;;;14.86;89.61;94102.34;5005069;28;20204;-73
2022/08/03 02:00:41;;;;;;;2.63;1.60;;;;;;;14.90;88.97;94110.31;5007886;28;20207;-73
2022/08/03 02:03:28;;;;;;;1.97;1.43;;;;;;;14.74;87.91;94109.38;5004511;28;20282;-72
2022/08/03 02:06:14;;;;;;;1.97;1.60;;;;;;;14.66;88.71;94109.63;5009028;28;20306;-73
2022/08/03 02:09:00;;;;;;;2.27;1.20;;;;;;;14.73;88.73;94111.44;5006995;28;20271;-73
2022/08/03 02:11:46;;;;;;;1.60;1.50;;;;;;;14.75;89.52;94105.19;5004789;28;20207;-73
2022/08/03 02:14:30;;;;;;;4.40;1.50;;;;;;;14.83;89.21;94100.75;5008169;28;20207;-73
2022/08/03 02:17:15;;;;;;;2.17;1.67;;;;;;;14.82;88.38;94104.19;5006447;28;20203;-73
2022/08/03 02:20:00;;;;;;;2.63;1.20;;;;;;;14.74;87.88;94110.09;5010800;28;20202;-73
2022/08/03 02:22:45;;;;;;;1.70;1.60;;;;;;;14.65;88.92;94101.78;5011959;28;20199;-73
2022/08/03 02:25:32;;;;;;;1.73;1.63;;;;;;;14.62;89.35;94106.56;5011834;28;20207;-73
2022/08/03 02:28:20;;;;;;;1.63;1.53;;;;;;;14.56;89.24;94109.75;5013101;28;20199;-73
2022/08/03 02:31:10;;;;;;;3.07;1.07;;;;;;;14.56;89.10;94111.84;5010419;28;20253;-73
2022/08/03 02:34:07;;;;;;;3.63;1.87;;;;;;;14.53;90.55;94113.06;5009329;28;20207;-72
2022/08/03 02:36:53;;;;;;;3.20;1.27;;;;;;;14.43;89.62;94101.94;5010448;28;20199;-73
2022/08/03 02:39:40;;;;;;;1.20;1.10;;;;;;;14.41;89.08;94101.06;5007928;28;20203;-73
2022/08/03 02:42:27;;;;;;;1.47;1.37;;;;;;;14.34;89.55;94107.66;5011819;28;20219;-73
2022/08/03 02:45:15;;;;;;;1.40;1.30;;;;;;;14.29;90.33;94100.31;5008380;28;20218;-73
2022/08/03 02:48:03;;;;;;;3.03;1.40;;;;;;;14.30;91.02;94101.78;5012511;28;20200;-73
2022/08/03 02:50:51;;;;;;;1.30;1.20;;;;;;;14.32;90.70;94101.91;5011178;28;20696;-73
2022/08/03 02:53:36;;;;;;;2.50;1.10;;;;;;;14.28;89.51;94101.66;5010013;28;20283;-73
2022/08/03 02:56:22;;;;;;;1.20;1.10;;;;;;;14.28;89.34;94098.84;5012916;28;20204;-73
2022/08/03 02:59:08;;;;;;;1.60;1.50;;;;;;;14.34;90.99;94107.66;5012774;28;20211;-73
2022/08/03 03:01:53;;;;;;;6.17;2.53;;;;;;;14.52;92.83;94100.31;5006639;28;20761;-73
2022/08/03 03:04:38;;;;;;;1.40;1.30;;;;;;;14.52;89.81;94108.78;5010439;28;20711;-72
2022/08/03 03:07:22;;;;;;;1.40;1.30;;;;;;;14.11;91.09;94109.13;5011620;28;20691;-73
2022/08/03 03:10:07;;;;;;;2.47;1.90;;;;;;;14.32;92.04;94099.09;5010624;28;20251;-73
2022/08/03 03:12:56;;;;;;;1.90;1.80;;;;;;;14.39;92.76;94103.75;5009752;28;20210;-74
2022/08/03 03:15:42;;;;;;;2.03;1.80;;;;;;;14.65;91.17;94099.69;5009065;28;20275;-74
2022/08/03 03:18:29;;;;;;;5.73;1.77;;;;;;;14.05;91.97;94105.94;5009665;28;20195;-73
2022/08/03 03:21:17;;;;;;;2.20;1.53;;;;;;;14.23;92.33;94108.41;5007987;28;20211;-73
2022/08/03 03:24:03;;;;;;;2.00;1.20;;;;;;;14.31;92.27;94103.25;5008797;28;20208;-73
2022/08/03 03:26:48;;;;;;;2.50;1.57;;;;;;;14.33;91.90;94106.19;5011151;28;20204;-72
2022/08/03 03:29:33;;;;;;;1.93;1.70;;;;;;;14.38;92.17;94102.31;5009784;28;20220;-72
2022/08/03 03:32:17;;;;;;;3.37;2.13;;;;;;;14.49;91.74;94107.19;5007664;28;20204;-73
2022/08/03 03:35:03;;;;;;;1.97;1.77;;;;;;;14.49;91.66;94095.91;5008219;28;20629;-72
2022/08/03 03:37:48;;;;;;;2.73;1.67;;;;;;;14.51;91.51;94105.22;5011232;28;20207;-73
2022/08/03 03:40:34;;;;;;;1.97;1.80;;;;;;;14.40;91.18;94096.78;5011868;28;20196;-72
2022/08/03 03:43:18;;;;;;;2.13;1.93;;;;;;;14.37;91.02;94089.53;5010107;28;20266;-72
2022/08/03 03:46:02;;;;;;;3.63;2.40;;;;;;;14.46;93.52;94094.31;5008738;28;20271;-73
2022/08/03 03:48:47;;;;;;;4.97;2.03;;;;;;;14.42;93.73;94096.91;5011706;28;20195;-73
2022/08/03 03:51:31;;;;;;;4.73;2.00;;;;;;;14.39;93.82;94092.47;5009388;28;20962;-73
2022/08/03 03:54:16;;;;;;;3.63;2.40;;;;;;;14.40;95.15;94091.13;5011148;28;20575;-72
2022/08/03 03:57:00;;;;;;;3.70;2.53;;;;;;;14.45;95.40;94092.84;5008292;28;20214;-73
2022/08/03 03:59:44;;;;;;;2.37;2.17;;;;;;;14.47;96.00;94093.72;5011515;28;20222;-73
2022/08/03 04:02:28;;;;;;;4.47;2.53;;;;;;;14.50;95.85;94097.41;5006962;28;20712;-73
2022/08/03 04:11:27;;;;;;;3.27;2.37;;;;;;;14.67;94.13;94105.44;5009600;28;20737;-71
2022/08/03 04:14:25;;;;;;;2.50;2.00;;;;;;;14.74;94.38;94101.66;5006384;28;20224;-73
2022/08/03 04:17:11;;;;;;;6.73;2.60;;;;;;;14.81;93.62;94103.44;5007764;28;20250;-73
2022/08/03 04:19:58;;;;;;;3.07;2.77;;;;;;;14.94;94.01;94105.63;5009737;28;20223;-73
2022/08/03 04:22:42;;;;;;;2.77;2.53;;;;;;;15.01;90.66;94105.97;5008375;28;20511;-73
2022/08/03 04:25:31;;;;;;;3.60;2.03;;;;;;;16.98;79.67;94106.81;5009666;28;20624;-73
2022/08/03 04:28:17;;;;;;;2.47;1.73;;;;;;;18.33;69.10;94114.72;5009608;28;20252;-73
2022/08/03 04:31:04;;;;;;;3.77;1.47;;;;;;;19.27;66.16;94103.22;5007668;28;20700;-73
2022/08/03 04:33:51;;;;;;;2.87;1.40;;;;;;;20.21;61.79;94114.13;5010831;28;20282;-73
2022/08/03 04:36:43;;;;;;;2.80;1.20;;;;;;;20.33;60.35;94111.78;5008198;28;20200;-73
2022/08/03 04:39:30;;;;;;;2.63;1.40;;;;;;;20.78;58.46;94108.47;5010672;28;20257;-73
2022/08/03 04:42:15;;;;;;;2.87;1.23;;;;;;;19.74;62.84;94120.13;5007259;28;20246;-73
2022/08/03 04:45:02;;;;;;;2.37;1.40;;;;;;;19.06;64.16;94117.97;5006787;28;20228;-73
2022/08/03 04:47:47;;;;;;;4.50;1.47;;;;;;;17.16;71.67;94121.13;5009321;28;20211;-74
2022/08/03 04:50:33;;;;;;;1.45;1.30;;;;;;;17.15;73.27;94120.44;5007903;28;20219;-74
2022/08/03 04:53:23;;;;;;;4.07;1.40;;;;;;;17.09;73.84;94114.47;5006630;28;20200;-73
2022/08/03 04:56:07;;;;;;;1.70;1.47;;;;;;;17.28;74.20;94118.94;5006793;28;20214;-73
2022/08/03 04:58:52;;;;;;;2.50;1.67;;;;;;;17.49;74.49;94114.97;5010148;28;20199;-73
2022/08/03 05:01:39;;;;;;;2.43;1.47;;;;;;;17.58;74.31;94120.41;5005074;28;20203;-73
2022/08/03 05:04:23;;;;;;;2.60;1.70;;;;;;;17.60;74.50;94122.59;5008821;28;20311;-73
2022/08/03 05:07:07;;;;;;;1.70;1.60;;;;;;;18.13;73.04;94120.19;5008641;28;20663;-73
2022/08/03 05:09:51;;;;;;;1.73;1.50;;;;;;;18.24;71.95;94119.28;5005889;28;20223;-73
2022/08/03 05:12:35;;;;;;;1.47;1.37;;;;;;;18.46;70.97;94128.06;5006169;28;20204;-73
2022/08/03 05:15:19;;;;;;;3.47;1.87;;;;;;;18.59;71.47;94130.09;5006073;28;20200;-73
2022/08/03 05:18:03;;;;;;;3.07;2.00;;;;;;;18.79;70.25;94136.69;5007069;28;20656;-73
2022/08/03 05:20:48;;;;;;;3.40;1.80;;;;;;;18.93;69.74;94136.59;5007510;28;20200;-73
2022/08/03 05:23:32;;;;;;;3.23;1.70;;;;;;;19.19;70.16;94132.03;5006338;28;20226;-73
2022/08/03 05:26:16;;;;;;;4.13;1.90;;;;;;;19.55;69.75;94132.13;5007167;28;20204;-73
2022/08/03 05:29:00;;;;;;;5.40;2.13;;;;;;;19.67;70.23;94136.19;5002747;28;20208;-74
2022/08/03 05:31:44;;;;;;;1.80;1.40;;;;;;;19.75;69.28;94135.78;5001913;28;20207;-74
2022/08/03 05:34:28;;;;;;;5.60;1.60;;;;;;;19.99;69.32;94138.88;5001709;28;20204;-73
2022/08/03 05:37:12;;;;;;;4.47;1.60;;;;;;;20.05;69.65;94141.97;5006763;28;20203;-73
2022/08/03 05:39:56;;;;;;;1.70;1.60;;;;;;;20.26;69.54;94137.78;5009657;28;20223;-73
2022/08/03 05:42:40;;;;;;;3.23;1.40;;;;;;;20.56;69.61;94142.53;5007915;28;20199;-73
2022/08/03 05:45:24;;;;;;;4.78;1.70;;;;;;;20.78;69.50;94133.38;5006736;28;20195;-73
2022/08/03 05:48:08;;;;;;;1.95;1.42;;;;;;;20.97;68.01;94136.22;5008017;28;20238;-73
2022/08/03 05:50:53;;;;;;;3.30;1.42;;;;;;;20.74;66.40;94138.94;5006427;28;20219;-72
2022/08/03 05:53:37;;;;;;;1.35;1.25;;;;;;;20.71;66.82;94128.84;5005489;28;20207;-73
2022/08/03 05:56:24;;;;;;;3.40;1.50;;;;;;;21.06;66.15;94137.22;5009305;28;20215;-74
2022/08/03 05:59:08;;;;;;;2.58;1.60;;;;;;;21.00;66.33;94139.88;5002967;28;20299;-73
2022/08/03 06:01:52;;;;;;;5.03;1.58;;;;;;;21.12;65.12;94133.88;5007218;28;20298;-73
2022/08/03 06:04:37;;;;;;;2.53;1.20;;;;;;;21.20;64.98;94137.78;4991283;28;20318;-74
2022/08/03 06:07:21;;;;;;;2.05;1.30;;;;;;;21.30;65.31;94140.97;5007993;28;20290;-74
2022/08/03 06:10:05;;;;;;;2.95;1.23;;;;;;;21.42;63.88;94145.66;5009370;28;20228;-73
2022/08/03 06:12:50;;;;;;;1.88;1.38;;;;;;;21.68;62.91;94137.97;5006469;28;20215;-74
2022/08/03 06:15:34;;;;;;;3.65;1.35;;;;;;;22.09;62.03;94152.19;5004757;28;20370;-74
2022/08/03 06:18:18;;;;;;;2.58;1.42;;;;;;;22.14;61.64;94142.34;5008688;28;20664;-74
2022/08/03 06:21:03;;;;;;;3.05;1.50;;;;;;;22.85;59.32;94153.09;5006080;28;20204;-74
2022/08/03 06:23:47;;;;;;;1.60;1.50;;;;;;;22.44;61.58;94147.53;5006571;28;20195;-74
2022/08/03 06:26:32;;;;;;;3.35;1.40;;;;;;;22.75;60.99;94155.66;5006489;28;20239;-73
2022/08/03 06:29:16;;;;;;;1.90;1.58;;;;;;;22.87;60.40;94156.00;5005858;28;20270;-75
2022/08/03 06:32:00;;;;;;;3.15;1.40;;;;;;;23.52;58.81;94152.09;5004293;28;20208;-73
2022/08/03 06:34:44;;;;;;;1.50;1.40;;;;;;;23.03;58.85;94155.00;5004122;28;20200;-75
2022/08/03 06:37:28;;;;;;;6.95;1.70;;;;;;;23.78;57.77;94155.66;5007063;28;20204;-73
2022/08/03 06:40:14;;;;;;;2.40;1.48;;;;;;;23.76;58.49;94154.88;5008148;28;20203;-74
2022/08/03 06:43:00;;;;;;;2.85;1.50;;;;;;;23.86;59.45;94154.41;5004940;28;20207;-73
2022/08/03 06:45:45;;;;;;;3.42;1.67;;;;;;;23.73;58.57;94153.38;5002389;28;20196;-75
2022/08/03 06:48:30;;;;;;;2.28;1.42;;;;;;;23.75;58.80;94154.16;5005949;28;20231;-74
2022/08/03 06:51:14;;;;;;;2.35;1.38;;;;;;;23.55;58.92;94156.47;5005171;28;20839;-76
2022/08/03 06:53:58;;;;;;;1.60;1.23;;;;;;;24.47;56.59;94157.34;5004345;28;20614;-74
2022/08/03 06:56:42;;;;;;;1.98;1.50;;;;;;;24.93;54.97;94160.53;5006666;28;20331;-74
2022/08/03 06:59:26;;;;;;;5.00;1.40;;;;;;;24.65;55.62;94156.28;5008798;28;20230;-76
2022/08/03 07:02:10;;;;;;;2.17;1.50;;;;;;;24.69;56.85;94157.09;5005963;28;20200;-74
2022/08/03 07:04:55;;;;;;;1.48;1.38;;;;;;;24.56;53.86;94161.13;5009727;28;20260;-76
2022/08/03 07:07:40;;;;;;;2.00;1.50;;;;;;;24.42;55.24;94158.66;5009538;28;20196;-73
2022/08/03 07:10:24;;;;;;;1.92;1.40;;;;;;;25.32;52.22;94158.44;5010293;28;20227;-73
2022/08/03 07:13:09;;;;;;;1.65;1.15;;;;;;;25.14;50.99;94153.09;5007761;28;20231;-76
2022/08/03 07:15:53;;;;;;;5.38;1.38;;;;;;;25.57;52.76;94153.94;5010209;28;20212;-78
2022/08/03 07:18:38;;;;;;;3.53;1.92;;;;;;;25.65;54.38;94159.84;5012020;28;20203;-73
2022/08/03 07:21:23;;;;;;;2.20;1.10;;;;;;;25.69;49.58;94151.28;5011753;28;20245;-75
2022/08/03 07:24:07;;;;;;;2.17;1.10;;;;;;;25.74;49.77;94149.94;5009064;28;20208;-73
2022/08/03 07:26:51;;;;;;;2.25;1.50;;;;;;;25.40;51.50;94147.13;5009485;28;20211;-77
2022/08/03 07:29:35;;;;;;;2.53;1.23;;;;;;;25.81;49.20;94148.63;5011443;28;20277;-73
2022/08/03 07:32:19;;;;;;;2.67;0.98;;;;;;;25.86;47.07;94149.44;5010429;28;20214;-74
2022/08/03 07:35:05;;;;;;;3.78;1.20;;;;;;;26.18;47.57;94144.97;5008197;28;20222;-74
2022/08/03 07:37:49;;;;;;;1.20;1.10;;;;;;;26.25;47.26;94147.94;5008816;28;20234;-75
2022/08/03 07:40:33;;;;;;;1.63;0.98;;;;;;;26.37;46.54;94148.88;5007914;28;20207;-73
2022/08/03 07:43:17;;;;;;;0.90;0.90;;;;;;;26.15;46.06;94152.09;5008228;28;20208;-73
2022/08/03 07:46:01;;;;;;;1.08;0.90;;;;;;;26.01;47.83;94157.59;5007659;28;20203;-74
2022/08/03 07:48:45;;;;;;;1.85;1.10;;;;;;;26.40;45.50;94144.63;5010028;28;20257;-76
2022/08/03 07:51:29;;;;;;;0.73;0.73;;;;;;;26.00;47.16;94153.28;5010093;28;20669;-74
2022/08/03 07:54:14;;;;;;;1.48;1.10;;;;;;;26.39;46.59;94162.56;5008551;28;20205;-75
2022/08/03 07:56:58;;;;;;;0.88;0.88;;;;;;;26.70;45.23;94161.59;4996334;28;20211;-76
2022/08/03 07:59:44;;;;;;;2.33;0.82;;;;;;;26.94;47.04;94155.47;5009601;28;20200;-73
2022/08/03 08:02:28;;;;;;;0.80;0.80;;;;;;;27.01;48.74;94157.00;5010217;28;20222;-74
2022/08/03 08:05:12;;;;;;;1.88;1.20;;;;;;;27.77;47.39;94157.19;5009033;28;20571;-73
2022/08/03 08:07:56;;;;;;;1.30;1.20;;;;;;;27.30;47.06;94155.94;5011169;28;20223;-75
2022/08/03 08:10:40;;;;;;;1.45;1.30;;;;;;;26.46;50.06;94155.47;5009593;28;20219;-74
2022/08/03 08:13:25;;;;;;;1.25;1.15;;;;;;;27.00;50.85;94149.06;5010315;28;20211;-73
2022/08/03 08:16:09;;;;;;;4.65;1.50;;;;;;;27.70;49.13;94154.97;5007303;28;20227;-75
2022/08/03 08:18:53;;;;;;;1.73;1.20;;;;;;;27.14;49.18;94149.25;5010321;28;20203;-74
2022/08/03 08:21:37;;;;;;;1.60;1.13;;;;;;;26.86;49.12;94156.06;5010422;28;20633;-75
2022/08/03 08:24:21;;;;;;;2.03;1.30;;;;;;;26.98;49.78;94144.75;5010258;28;20203;-73
2022/08/03 08:27:07;;;;;;;0.93;0.73;;;;;;;27.16;49.32;94152.16;5007795;28;20672;-75
2022/08/03 08:29:51;;;;;;;1.20;1.10;;;;;;;27.03;48.18;94144.81;5010797;28;20231;-74
2022/08/03 08:32:36;;;;;;;1.25;0.95;;;;;;;27.33;46.80;94145.19;5006730;28;20195;-74
2022/08/03 08:35:20;;;;;;;2.08;0.80;;;;;;;27.34;45.06;94143.75;5006875;28;20564;-73
2022/08/03 08:38:04;;;;;;;1.15;1.00;;;;;;;27.14;45.66;94143.50;5003311;28;20291;-73
2022/08/03 08:40:49;;;;;;;1.75;0.93;;;;;;;27.47;45.91;94145.31;5008248;28;20203;-73
2022/08/03 08:43:33;;;;;;;2.17;0.70;;;;;;;27.63;44.11;94148.44;5007287;28;20200;-73
2022/08/03 08:46:19;;;;;;;1.05;0.98;;;;;;;27.37;45.02;94142.34;5006310;28;20227;-74
2022/08/03 08:49:07;;;;;;;1.65;0.85;;;;;;;27.08;45.82;94134.81;5008815;28;20204;-74
2022/08/03 08:51:53;;;;;;;1.75;0.80;;;;;;;27.19;45.55;94139.25;5007099;28;20208;-73
2022/08/03 08:54:40;;;;;;;1.98;1.02;;;;;;;27.67;43.03;94139.09;5007780;28;20197;-77
2022/08/03 08:57:32;;;;;;;1.85;0.82;;;;;;;27.82;43.45;94142.84;5008981;28;20207;-75
2022/08/03 09:00:17;;;;;;;1.65;0.95;;;;;;;27.56;42.69;94141.16;5008240;28;20192;-74
2022/08/03 09:03:01;;;;;;;2.65;1.20;;;;;;;27.74;43.79;94144.22;5006659;28;20204;-74
2022/08/03 09:05:46;;;;;;;1.08;0.75;;;;;;;27.63;42.23;94134.03;5008935;28;20781;-75
2022/08/03 09:08:31;;;;;;;1.33;0.90;;;;;;;27.81;41.27;94136.38;5007774;28;20621;-74
2022/08/03 09:11:20;;;;;;;1.15;1.00;;;;;;;27.70;41.65;94144.19;5006112;28;20219;-76
2022/08/03 09:14:04;;;;;;;1.05;0.95;;;;;;;27.91;42.18;94145.09;5006926;28;20277;-75
2022/08/03 09:17:00;;;;;;;0.85;0.80;;;;;;;28.13;39.29;94151.09;5009136;28;20207;-77
2022/08/03 09:20:04;;;;;;;1.38;0.95;;;;;;;27.67;40.51;94144.84;5008094;28;20655;-74
2022/08/03 09:22:59;;;;;;;0.68;0.68;;;;;;;28.07;40.91;94158.94;5007770;28;20287;-75
2022/08/03 09:25:44;;;;;;;1.27;0.93;;;;;;;28.24;38.25;94157.66;5007594;28;20686;-75
2022/08/03 09:28:34;;;;;;;3.17;0.90;;;;;;;28.47;38.92;94155.69;5009062;28;20200;-74
2022/08/03 09:31:18;;;;;;;1.23;1.10;;;;;;;28.11;40.53;94156.09;5007461;28;20227;-75
2022/08/03 09:34:07;;;;;;;2.45;0.90;;;;;;;28.17;41.46;94153.28;5008998;28;20203;-75
2022/08/03 09:36:52;;;;;;;1.00;0.75;;;;;;;28.13;41.48;94156.09;5008466;28;20547;-74
2022/08/03 09:39:37;;;;;;;3.72;0.95;;;;;;;28.28;42.06;94149.03;5008533;28;20200;-73
2022/08/03 09:42:22;;;;;;;2.97;0.90;;;;;;;27.41;40.43;94151.00;5008427;28;20558;-75
2022/08/03 09:45:25;;;;;;;1.23;0.98;;;;;;;27.82;41.64;94148.59;5005684;28;20207;-73
2022/08/03 09:48:29;;;;;;;0.75;0.75;;;;;;;28.22;42.01;94166.28;5007980;28;20203;-75
2022/08/03 09:51:17;;;;;;;0.93;0.93;;;;;;;28.75;39.50;94152.31;5007203;28;20215;-75
2022/08/03 09:54:03;;;;;;;1.08;0.90;;;;;;;29.01;39.30;94152.44;5009638;28;20207;-74
2022/08/03 09:56:47;;;;;;;0.80;0.80;;;;;;;29.95;36.60;94150.66;5008035;28;20199;-73
2022/08/03 09:59:33;;;;;;;2.85;0.75;;;;;;;29.15;38.81;94155.41;5009412;28;20309;-74
2022/08/03 10:02:26;;;;;;;0.80;0.80;;;;;;;29.41;35.99;94146.16;5008727;28;20200;-74
2022/08/03 10:05:12;;;;;;;0.80;0.80;;;;;;;29.71;35.73;94142.66;5007261;28;20227;-75
2022/08/03 10:07:56;;;;;;;1.05;0.82;;;;;;;30.06;35.61;94141.28;5007880;28;20207;-73
2022/08/03 10:10:46;;;;;;;1.20;1.05;;;;;;;29.22;38.54;94148.22;5008970;28;20223;-73
2022/08/03 10:13:31;;;;;;;1.17;1.05;;;;;;;29.40;37.96;94144.72;5009366;28;20204;-75
2022/08/03 10:16:15;;;;;;;1.27;0.90;;;;;;;29.21;37.75;94152.56;5003621;28;20226;-73
2022/08/03 10:18:59;;;;;;;3.42;0.80;;;;;;;30.17;37.40;94141.31;5007730;28;20211;-73
2022/08/03 10:21:52;;;;;;;0.88;0.75;;;;;;;29.75;37.00;94131.81;5006748;28;20195;-74
2022/08/03 10:24:40;;;;;;;0.73;0.73;;;;;;;29.62;37.53;94141.19;5005124;28;20829;-73
2022/08/03 10:27:30;;;;;;;0.80;0.80;;;;;;;30.50;33.33;94134.09;5008255;28;20219;-73
2022/08/03 10:30:15;;;;;;;0.80;0.80;;;;;;;29.99;33.24;94136.25;5007731;28;20219;-74
2022/08/03 10:33:03;;;;;;;1.02;0.88;;;;;;;29.01;32.90;94128.66;5007803;28;20408;-73
2022/08/03 10:35:53;;;;;;;4.63;1.10;;;;;;;29.78;35.26;94123.88;5006657;28;20286;-73
2022/08/03 10:38:45;;;;;;;0.77;0.77;;;;;;;29.13;32.47;94131.59;5009291;28;20568;-75
2022/08/03 10:41:35;;;;;;;0.88;0.88;;;;;;;29.71;33.32;94128.94;5010015;28;20699;-74
2022/08/03 10:44:23;;;;;;;0.90;0.90;;;;;;;30.50;33.42;94122.53;5009952;28;20200;-73
2022/08/03 10:47:09;;;;;;;0.82;0.82;;;;;;;30.64;34.53;94122.50;5009638;28;20199;-74
2022/08/03 10:49:53;;;;;;;0.57;0.57;;;;;;;30.38;34.94;94122.50;5009200;28;20670;-74
2022/08/03 10:52:57;;;;;;;1.20;0.88;;;;;;;30.44;32.82;94114.56;5008519;28;20677;-75
2022/08/03 10:58:53;;;;;;;1.67;0.70;;;;;;;29.52;35.22;94115.16;5011085;28;20200;-74
2022/08/03 11:01:52;;;;;;;0.93;0.90;;;;;;;29.10;35.05;94104.88;5007128;28;20241;-72
2022/08/03 11:04:35;;;;;;;0.80;0.80;;;;;;;29.70;33.88;94113.03;5006894;28;20247;-76
2022/08/03 11:07:24;;;;;;;0.60;0.60;;;;;;;30.07;31.51;94108.06;5010757;28;20656;-76
2022/08/03 11:10:29;;;;;;;1.48;0.77;;;;;;;30.36;34.35;94108.06;5011647;28;20224;-73
2022/08/03 11:13:15;;;;;;;2.47;0.77;;;;;;;30.61;31.36;94108.78;5008862;28;20235;-74
2022/08/03 11:16:02;;;;;;;2.05;0.90;;;;;;;30.75;31.89;94100.78;5010627;28;20195;-75
2022/08/03 11:19:01;;;;;;;0.77;0.77;;;;;;;29.74;31.85;94106.56;5010822;28;20199;-73
2022/08/03 11:21:48;;;;;;;1.10;1.00;;;;;;;29.60;31.72;94103.63;5009227;28;20896;-73
2022/08/03 11:24:35;;;;;;;1.70;0.90;;;;;;;30.04;30.77;94097.22;5011452;28;20698;-74
2022/08/03 11:27:21;;;;;;;0.80;0.80;;;;;;;30.81;29.21;94097.88;5008650;28;20235;-74
2022/08/03 11:30:14;;;;;;;0.88;0.80;;;;;;;30.74;31.55;94098.63;5012093;28;20227;-74
2022/08/03 11:32:59;;;;;;;0.80;0.70;;;;;;;31.66;29.22;94094.69;5008659;28;20224;-74
2022/08/03 11:36:00;;;;;;;0.82;0.82;;;;;;;31.72;29.03;94091.75;5004944;28;20200;-74
2022/08/03 11:39:13;;;;;;;0.85;0.70;;;;;;;32.20;28.42;94092.91;5008933;28;20566;-75
2022/08/03 11:41:58;;;;;;;6.70;0.80;;;;;;;31.67;29.62;94093.22;5011034;28;20204;-74
2022/08/03 11:44:42;;;;;;;1.35;1.20;;;;;;;30.18;27.88;94087.84;5010355;28;20700;-75
2022/08/03 11:47:28;;;;;;;0.73;0.73;;;;;;;31.19;29.12;94088.38;5011429;28;20275;-73
2022/08/03 11:50:12;;;;;;;0.70;0.70;;;;;;;31.06;27.67;94086.25;5007686;28;20707;-74
2022/08/03 11:52:57;;;;;;;0.70;0.70;;;;;;;31.35;28.27;94081.81;5009084;28;20279;-75
2022/08/03 11:55:43;;;;;;;2.72;0.98;;;;;;;31.61;29.57;94090.38;5008346;28;20400;-73
2022/08/03 11:58:28;;;;;;;0.75;0.75;;;;;;;32.49;29.29;94093.38;5009869;28;20196;-74
2022/08/03 12:01:15;;;;;;;1.05;0.93;;;;;;;31.83;28.00;94080.81;5009280;28;20199;-74
2022/08/03 12:04:03;;;;;;;1.65;0.82;;;;;;;31.74;28.76;94080.16;5011113;28;20200;-74
2022/08/03 12:06:58;;;;;;;0.68;0.68;;;;;;;31.86;27.64;94078.63;5009691;28;20270;-75
2022/08/03 12:09:43;;;;;;;1.10;1.00;;;;;;;32.03;27.47;94071.28;5006532;28;20203;-75
2022/08/03 12:12:27;;;;;;;1.05;0.70;;;;;;;32.67;27.43;94072.91;5010145;28;20215;-74
2022/08/03 12:15:11;;;;;;;0.68;0.68;;;;;;;32.21;28.28;94076.22;4994096;28;20579;-74
2022/08/03 12:17:56;;;;;;;0.82;0.80;;;;;;;31.85;28.00;94066.31;5011185;28;20547;-74
2022/08/03 12:20:40;;;;;;;0.63;0.55;;;;;;;32.40;29.50;94068.81;5008849;28;20210;-73
2022/08/03 12:23:26;;;;;;;1.10;1.00;;;;;;;32.52;27.31;94063.63;5007821;28;20232;-74
2022/08/03 12:26:10;;;;;;;0.90;0.90;;;;;;;32.24;28.72;94063.84;5008620;28;20676;-75
2022/08/03 12:28:54;;;;;;;1.10;1.00;;;;;;;32.62;27.30;94064.97;5010805;28;20191;-73
2022/08/03 12:31:38;;;;;;;0.90;0.80;;;;;;;33.07;28.10;94071.75;5008156;28;20298;-74
2022/08/03 12:34:22;;;;;;;2.70;0.65;;;;;;;33.02;28.00;94061.63;5009277;28;20257;-73
2022/08/03 12:37:06;;;;;;;0.82;0.82;;;;;;;33.17;26.56;94074.53;5011537;28;20200;-75
2022/08/03 12:39:55;;;;;;;1.10;0.75;;;;;;;32.87;25.41;94071.97;5009916;28;20199;-73
2022/08/03 12:42:40;;;;;;;0.75;0.73;;;;;;;32.09;29.21;94066.16;5007553;28;20207;-74
2022/08/03 12:45:27;;;;;;;1.98;0.88;;;;;;;32.21;30.51;94067.53;5005680;28;20204;-74
2022/08/03 12:48:11;;;;;;;3.38;0.77;;;;;;;32.29;28.47;94056.56;5006903;28;20208;-74
2022/08/03 12:51:07;;;;;;;0.70;0.70;;;;;;;33.25;28.16;94070.84;5009285;28;20251;-73
2022/08/03 12:53:53;;;;;;;0.80;0.80;;;;;;;32.89;25.85;94063.25;5007211;28;20238;-74
2022/08/03 12:57:05;;;;;;;2.40;0.80;;;;;;;32.91;25.87;94054.50;5005682;28;20278;-73
2022/08/03 12:59:54;;;;;;;0.70;0.70;;;;;;;32.15;26.34;94061.78;5005954;28;20326;-73
2022/08/03 13:02:38;;;;;;;2.63;0.98;;;;;;;32.70;26.86;94053.31;5007685;28;20204;-73
2022/08/03 13:05:22;;;;;;;1.85;0.50;;;;;;;33.07;25.20;94060.16;5008260;28;20231;-73
2022/08/03 13:08:20;;;;;;;1.95;0.60;;;;;;;32.52;24.63;94062.91;5008886;28;20294;-74
2022/08/03 13:11:21;;;;;;;0.70;0.50;;;;;;;32.27;24.67;94056.59;5006576;28;20220;-74
2022/08/03 13:14:05;;;;;;;0.60;0.60;;;;;;;31.81;25.68;94054.03;5008416;28;20231;-74
2022/08/03 13:16:50;;;;;;;0.85;0.85;;;;;;;32.52;26.62;94060.72;5006453;28;20684;-74